Time;durP1;ratioP1;P1;durP2;ratioP2;P2;SDS_P1;SDS_P2;PMS_P1;PMS_P2;Temp;Humidity;BMP_temperature;BMP_pressure;BME280_temperature;BME280_humidity;BME280_pressure;Samples;Min_cycle;Max_cycle;Signal;HPM_P1;HPM_P2
2022/09/27 00:02:20;;;;;;;4.57;4.07;;;11.00;99.90;;;;;;5071325;28;20544;-54
2022/09/27 00:04:46;;;;;;;5.40;4.35;;;11.00;99.90;;;;;;5071348;28;20509;-55
2022/09/27 00:07:11;;;;;;;4.68;3.83;;;11.00;99.90;;;;;;5057376;28;20488;-54
2022/09/27 00:09:37;;;;;;;4.30;3.58;;;11.00;99.90;;;;;;5051174;28;20036;-52
2022/09/27 00:12:03;;;;;;;4.85;4.38;;;11.00;99.90;;;;;;5051121;28;20017;-52
2022/09/27 00:14:29;;;;;;;4.88;4.38;;;11.00;99.90;;;;;;5051325;28;20029;-55
2022/09/27 00:16:55;;;;;;;9.98;3.78;;;11.00;99.90;;;;;;5051327;28;20054;-53
2022/09/27 00:19:22;;;;;;;4.70;4.28;;;11.00;99.90;;;;;;5063632;28;20103;-52
2022/09/27 00:21:49;;;;;;;4.25;3.85;;;11.00;99.90;;;;;;5070914;28;20024;-52
2022/09/27 00:24:17;;;;;;;4.32;3.92;;;11.00;99.90;;;;;;5071052;28;20070;-56
2022/09/27 00:26:43;;;;;;;4.15;3.75;;;11.10;99.90;;;;;;5071195;28;20033;-54
2022/09/27 00:29:10;;;;;;;5.72;3.42;;;11.10;99.90;;;;;;5071094;28;20051;-52
2022/09/27 00:31:36;;;;;;;4.65;3.72;;;11.10;99.90;;;;;;5071125;28;20382;-51
2022/09/27 00:34:04;;;;;;;4.13;3.72;;;11.00;99.90;;;;;;5069431;28;20040;-52
2022/09/27 00:36:30;;;;;;;11.95;3.88;;;11.00;99.90;;;;;;5071126;28;20454;-55
2022/09/27 00:39:00;;;;;;;6.00;3.63;;;11.00;99.90;;;;;;5070870;28;20024;-52
2022/09/27 00:41:35;;;;;;;4.57;3.20;;;11.00;99.90;;;;;;5070913;28;20021;-53
2022/09/27 00:44:21;;;;;;;3.75;3.42;;;11.00;99.90;;;;;;5071004;28;20103;-52
2022/09/27 00:46:56;;;;;;;4.18;3.38;;;10.90;99.90;;;;;;5070830;28;20016;-55
2022/09/27 00:49:31;;;;;;;4.03;3.25;;;10.90;99.90;;;;;;5071036;28;20032;-51
2022/09/27 00:52:07;;;;;;;4.90;3.40;;;11.00;99.90;;;;;;5074559;28;20013;-53
2022/09/27 00:54:37;;;;;;;3.50;3.20;;;11.10;99.90;;;;;;5074452;28;20526;-52
2022/09/27 00:57:04;;;;;;;6.85;3.53;;;11.00;99.90;;;;;;5074367;28;20081;-53
2022/09/27 00:59:36;;;;;;;4.03;3.67;;;11.00;99.90;;;;;;5074395;28;20020;-55
2022/09/27 01:02:06;;;;;;;4.32;3.58;;;10.90;99.90;;;;;;5074308;28;20421;-51
2022/09/27 01:04:32;;;;;;;3.78;3.33;;;10.90;99.90;;;;;;5072456;28;20013;-51
2022/09/27 01:06:59;;;;;;;4.03;3.63;;;10.80;99.90;;;;;;5074000;28;20702;-53
2022/09/27 01:09:25;;;;;;;3.92;3.58;;;10.80;99.90;;;;;;5074322;28;20442;-52
2022/09/27 01:12:16;;;;;;;4.78;3.38;;;10.80;99.90;;;;;;5074293;28;20117;-54
2022/09/27 01:15:15;;;;;;;9.60;3.47;;;10.80;99.90;;;;;;5073185;28;20033;-55
2022/09/27 01:17:56;;;;;;;13.38;3.50;;;10.80;99.90;;;;;;5071324;28;20487;-54
2022/09/27 01:20:37;;;;;;;6.28;3.28;;;10.70;99.90;;;;;;5054110;28;20025;-54
2022/09/27 01:23:47;;;;;;;8.20;3.55;;;10.70;99.90;;;;;;5053869;28;20032;-52
2022/09/27 01:26:47;;;;;;;4.30;3.05;;;10.70;99.90;;;;;;5054065;28;20064;-53
2022/09/27 01:29:49;;;;;;;4.57;3.20;;;10.80;99.90;;;;;;5054052;28;20033;-53
2022/09/27 01:32:26;;;;;;;8.88;3.90;;;10.80;99.90;;;;;;5054299;28;20035;-52
2022/09/27 01:35:16;;;;;;;4.53;3.50;;;10.70;99.90;;;;;;5073562;28;20029;-51
2022/09/27 01:38:24;;;;;;;14.25;3.50;;;10.70;99.90;;;;;;5063241;28;20036;-51
2022/09/27 01:41:30;;;;;;;4.15;3.75;;;10.70;99.90;;;;;;5061526;28;20041;-53
2022/09/27 01:44:09;;;;;;;3.10;2.80;;;10.70;99.90;;;;;;5059760;28;20051;-51
2022/09/27 01:46:45;;;;;;;3.33;3.03;;;10.60;99.90;;;;;;5052696;28;20070;-52
2022/09/27 01:49:23;;;;;;;3.30;3.03;;;10.70;99.90;;;;;;5052855;28;20029;-52
2022/09/27 01:52:00;;;;;;;3.58;3.22;;;10.60;99.90;;;;;;5051646;28;20025;-51
2022/09/27 01:54:34;;;;;;;5.35;3.33;;;10.60;99.90;;;;;;5052423;28;20029;-54
2022/09/27 01:57:02;;;;;;;4.55;3.20;;;10.70;99.90;;;;;;5052210;28;20060;-52
2022/09/27 01:59:37;;;;;;;3.53;3.22;;;10.70;99.90;;;;;;5052404;28;20020;-54
2022/09/27 02:02:08;;;;;;;8.55;3.30;;;10.70;99.90;;;;;;5051906;28;20029;-55
2022/09/27 02:04:36;;;;;;;7.10;3.45;;;10.80;99.90;;;;;;5053278;28;20486;-54
2022/09/27 02:07:10;;;;;;;7.95;3.15;;;10.80;99.90;;;;;;5055937;28;20048;-52
2022/09/27 02:09:44;;;;;;;3.80;3.40;;;10.70;99.90;;;;;;5053340;28;20029;-54
2022/09/27 02:12:13;;;;;;;10.85;5.13;;;10.70;99.90;;;;;;5053175;28;20013;-51
2022/09/27 02:15:08;;;;;;;6.63;2.97;;;10.70;99.90;;;;;;5052828;28;20021;-54
2022/09/27 02:17:39;;;;;;;4.07;3.33;;;10.80;99.90;;;;;;5053113;28;20101;-52
2022/09/27 02:20:27;;;;;;;4.50;3.55;;;10.80;99.90;;;;;;5053002;28;20023;-55
2022/09/27 02:23:30;;;;;;;3.53;3.10;;;10.70;99.90;;;;;;5052678;28;20532;-51
2022/09/27 02:26:10;;;;;;;3.13;2.83;;;10.70;99.90;;;;;;5052598;28;20099;-54
2022/09/27 02:29:11;;;;;;;10.48;2.88;;;10.70;99.90;;;;;;5052732;28;20105;-51
2022/09/27 02:31:37;;;;;;;3.72;2.97;;;10.60;99.90;;;;;;5052504;28;20037;-52
2022/09/27 02:34:10;;;;;;;4.22;3.13;;;10.60;99.90;;;;;;5052504;28;20098;-53
2022/09/27 02:36:36;;;;;;;8.02;3.42;;;10.60;99.90;;;;;;5052532;28;20025;-52
2022/09/27 02:39:03;;;;;;;3.90;3.45;;;10.60;99.90;;;;;;5052617;28;20048;-54
2022/09/27 02:41:28;;;;;;;12.30;3.85;;;10.60;99.90;;;;;;5052589;28;20019;-52
2022/09/27 02:44:01;;;;;;;5.22;3.10;;;10.50;99.90;;;;;;5052222;28;20013;-55
2022/09/27 02:46:38;;;;;;;5.60;3.25;;;10.60;99.90;;;;;;5052434;28;20522;-51
2022/09/27 02:49:04;;;;;;;4.93;3.45;;;10.60;99.90;;;;;;5052553;28;20029;-52
2022/09/27 02:51:36;;;;;;;3.42;2.90;;;10.60;99.90;;;;;;5051127;28;20091;-53
2022/09/27 02:54:23;;;;;;;2.85;2.65;;;10.60;99.90;;;;;;5063921;28;20025;-51
2022/09/27 02:57:18;;;;;;;6.38;3.30;;;10.70;99.90;;;;;;5071757;28;20025;-52
2022/09/27 02:59:50;;;;;;;3.13;2.75;;;10.70;99.90;;;;;;5072066;28;20460;-52
2022/09/27 03:03:01;;;;;;;5.15;3.55;;;10.70;99.90;;;;;;5071915;28;20030;-51
2022/09/27 03:05:36;;;;;;;8.48;3.60;;;10.60;99.90;;;;;;5069304;28;20028;-52
2022/09/27 03:08:03;;;;;;;12.68;4.50;;;10.60;99.90;;;;;;5069171;28;20191;-51
2022/09/27 03:10:29;;;;;;;9.90;3.67;;;10.60;99.90;;;;;;5070837;28;20116;-52
2022/09/27 03:12:57;;;;;;;6.60;3.45;;;10.50;99.90;;;;;;5071836;28;20562;-55
2022/09/27 03:15:23;;;;;;;4.72;3.33;;;10.50;99.90;;;;;;5070531;28;20472;-52
2022/09/27 03:17:49;;;;;;;4.32;3.83;;;10.50;99.90;;;;;;5051849;28;20025;-53
2022/09/27 03:20:14;;;;;;;4.97;3.30;;;10.50;99.90;;;;;;5051832;28;20479;-52
2022/09/27 03:22:41;;;;;;;6.20;3.60;;;10.50;99.90;;;;;;5051822;28;20484;-52
2022/09/27 03:25:07;;;;;;;7.28;3.35;;;10.60;99.90;;;;;;5050462;28;20017;-52
2022/09/27 03:27:33;;;;;;;3.67;3.00;;;10.60;99.90;;;;;;5051791;28;20130;-54
2022/09/27 03:29:58;;;;;;;10.63;3.00;;;10.60;99.90;;;;;;5051760;28;20120;-51
2022/09/27 03:32:25;;;;;;;5.05;3.00;;;10.60;99.90;;;;;;5051619;28;20025;-51
2022/09/27 03:34:53;;;;;;;6.05;3.47;;;10.60;99.90;;;;;;5051592;28;20048;-51
2022/09/27 03:37:20;;;;;;;6.03;3.22;;;10.60;99.90;;;;;;5051654;28;20028;-54
2022/09/27 03:39:55;;;;;;;3.08;2.78;;;10.50;99.90;;;;;;5051625;28;20200;-53
2022/09/27 03:42:20;;;;;;;7.45;2.90;;;10.60;99.90;;;;;;5051632;28;20021;-52
2022/09/27 03:44:46;;;;;;;8.20;2.58;;;10.60;99.90;;;;;;5051385;28;20021;-52
2022/09/27 03:47:12;;;;;;;5.75;3.10;;;10.60;99.90;;;;;;5071680;28;20064;-53
2022/09/27 03:49:38;;;;;;;2.60;2.40;;;10.60;99.90;;;;;;5071443;28;20163;-52
2022/09/27 03:52:03;;;;;;;3.10;2.90;;;10.50;99.90;;;;;;5071416;28;20028;-54
2022/09/27 03:54:29;;;;;;;4.88;2.72;;;10.50;99.90;;;;;;5071696;28;20032;-51
2022/09/27 03:56:55;;;;;;;3.17;2.70;;;10.50;99.90;;;;;;5071269;28;20574;-55
2022/09/27 03:59:20;;;;;;;6.85;3.63;;;10.50;99.90;;;;;;5071446;28;20032;-51
2022/09/27 04:01:46;;;;;;;7.82;3.40;;;10.50;99.90;;;;;;5054760;28;20469;-54
2022/09/27 04:04:11;;;;;;;6.03;2.90;;;10.50;99.90;;;;;;5051259;28;20032;-53
2022/09/27 04:06:37;;;;;;;3.72;2.10;;;10.60;99.90;;;;;;5051410;28;20105;-51
2022/09/27 04:09:03;;;;;;;3.47;2.65;;;10.60;99.90;;;;;;5051327;28;20384;-52
2022/09/27 04:11:29;;;;;;;4.78;2.67;;;10.70;99.90;;;;;;5049808;28;20029;-51
2022/09/27 04:13:55;;;;;;;3.97;3.25;;;10.70;99.90;;;;;;5051171;28;20067;-53
2022/09/27 04:16:21;;;;;;;3.90;3.00;;;10.60;99.90;;;;;;5051129;28;20055;-51
2022/09/27 04:18:53;;;;;;;3.63;3.28;;;10.60;99.90;;;;;;5051001;28;20514;-53
2022/09/27 04:21:19;;;;;;;8.90;3.00;;;10.60;99.90;;;;;;5051224;28;20045;-51
2022/09/27 04:23:45;;;;;;;2.85;2.45;;;10.60;99.90;;;;;;5054340;28;20029;-54
2022/09/27 04:26:12;;;;;;;5.80;2.50;;;10.60;99.90;;;;;;5055011;28;20017;-54
2022/09/27 04:28:38;;;;;;;3.63;2.47;;;10.50;99.90;;;;;;5055236;28;20419;-52
2022/09/27 04:31:04;;;;;;;3.33;2.42;;;10.50;99.90;;;;;;5064010;28;20020;-54
2022/09/27 04:33:29;;;;;;;3.85;3.10;;;10.60;99.90;;;;;;5075119;28;20036;-54
2022/09/27 04:38:39;;;;;;;2.30;2.10;;;10.60;99.90;;;;;;5075182;28;20394;-55
2022/09/27 04:41:06;;;;;;;7.72;2.72;;;10.60;99.90;;;;;;5074129;28;20111;-52
2022/09/27 04:43:32;;;;;;;9.65;6.05;;;10.60;99.90;;;;;;5073630;28;20434;-52
2022/09/27 04:45:57;;;;;;;3.00;2.33;;;10.50;99.90;;;;;;5071657;28;20081;-52
2022/09/27 04:48:23;;;;;;;2.42;2.22;;;10.40;99.90;;;;;;5073387;28;20113;-51
2022/09/27 04:50:57;;;;;;;3.63;2.65;;;10.30;99.90;;;;;;5073333;28;20494;-52
2022/09/27 04:53:22;;;;;;;2.75;2.28;;;10.30;99.90;;;;;;5073374;28;20379;-52
2022/09/27 04:55:53;;;;;;;9.75;2.92;;;10.20;99.90;;;;;;5073340;28;20029;-51
2022/09/27 04:58:19;;;;;;;5.32;2.60;;;10.10;99.90;;;;;;5073331;28;20464;-51
2022/09/27 05:00:46;;;;;;;3.60;2.58;;;10.00;99.90;;;;;;5061962;28;20108;-52
2022/09/27 05:03:13;;;;;;;3.85;2.88;;;9.90;99.90;;;;;;5053230;28;20063;-51
2022/09/27 05:05:40;;;;;;;3.00;2.70;;;9.90;99.90;;;;;;5052957;28;20369;-52
2022/09/27 05:08:06;;;;;;;3.78;2.80;;;9.90;99.90;;;;;;5053325;28;20064;-52
2022/09/27 05:10:32;;;;;;;3.20;2.78;;;9.90;99.90;;;;;;5054206;28;20023;-52
2022/09/27 05:12:58;;;;;;;4.30;3.13;;;9.90;99.90;;;;;;5043718;28;21043;-52
2022/09/27 05:15:23;;;;;;;3.53;2.35;;;9.90;99.90;;;;;;5039277;28;20503;-53
2022/09/27 05:17:52;;;;;;;4.53;2.90;;;9.80;99.90;;;;;;5042944;28;20534;-50
2022/09/27 05:20:18;;;;;;;6.85;2.80;;;9.80;99.90;;;;;;5043775;28;20357;-52
2022/09/27 05:22:44;;;;;;;5.75;3.38;;;9.80;99.90;;;;;;5042885;28;20021;-52
2022/09/27 05:25:12;;;;;;;7.25;2.78;;;9.80;99.90;;;;;;5043073;28;20081;-54
2022/09/27 05:27:38;;;;;;;3.00;2.70;;;9.80;99.90;;;;;;5043629;28;20025;-51
2022/09/27 05:30:06;;;;;;;4.07;3.10;;;9.80;99.90;;;;;;5055684;28;20070;-54
2022/09/27 05:32:33;;;;;;;5.07;2.83;;;9.80;99.90;;;;;;5072898;28;20028;-52
2022/09/27 05:34:59;;;;;;;6.82;2.95;;;9.80;99.90;;;;;;5071613;28;20039;-55
2022/09/27 05:37:25;;;;;;;8.15;5.82;;;9.80;99.90;;;;;;5073578;28;20021;-52
2022/09/27 05:39:50;;;;;;;8.45;2.63;;;9.80;99.90;;;;;;5073518;28;20024;-53
2022/09/27 05:42:17;;;;;;;4.30;3.00;;;9.90;99.90;;;;;;5072530;28;20095;-51
2022/09/27 05:44:46;;;;;;;5.10;2.95;;;9.90;99.90;;;;;;5073065;28;20484;-53
2022/09/27 05:47:13;;;;;;;3.38;2.70;;;10.00;99.90;;;;;;5065746;28;20021;-51
2022/09/27 05:49:39;;;;;;;4.28;2.85;;;10.00;99.90;;;;;;5063389;28;20353;-55
2022/09/27 05:52:05;;;;;;;3.25;2.65;;;10.00;99.90;;;;;;5061714;28;20020;-52
2022/09/27 05:54:31;;;;;;;3.28;2.97;;;9.90;99.90;;;;;;5063315;28;20029;-53
2022/09/27 05:56:58;;;;;;;5.60;2.53;;;9.90;99.90;;;;;;5071429;28;20031;-55
2022/09/27 05:59:27;;;;;;;4.13;3.33;;;9.80;99.90;;;;;;5070969;28;20543;-60
2022/09/27 06:01:53;;;;;;;5.53;3.45;;;9.70;99.90;;;;;;5073119;28;20036;-52
2022/09/27 06:04:21;;;;;;;4.85;3.53;;;9.80;99.90;;;;;;5073193;28;20071;-54
2022/09/27 06:06:47;;;;;;;3.20;2.90;;;9.80;99.90;;;;;;5072900;28;20032;-53
2022/09/27 06:09:14;;;;;;;4.22;2.90;;;9.70;99.90;;;;;;5073043;28;20170;-55
2022/09/27 06:11:42;;;;;;;3.03;2.80;;;9.80;99.90;;;;;;5072852;28;20535;-55
2022/09/27 06:14:08;;;;;;;8.60;3.53;;;9.70;99.90;;;;;;5064362;28;20036;-55
2022/09/27 06:16:34;;;;;;;5.47;3.60;;;9.70;99.90;;;;;;5051520;28;20029;-57
2022/09/27 06:19:00;;;;;;;3.65;3.35;;;9.80;99.90;;;;;;5051475;28;20036;-55
2022/09/27 06:21:27;;;;;;;8.60;3.50;;;9.80;99.90;;;;;;5053012;28;20017;-55
2022/09/27 06:23:54;;;;;;;3.65;3.22;;;9.80;99.90;;;;;;5052693;28;20021;-56
2022/09/27 06:26:20;;;;;;;3.50;2.53;;;9.90;99.90;;;;;;5052856;28;20056;-54
2022/09/27 06:28:46;;;;;;;3.63;2.50;;;9.90;99.90;;;;;;5059855;28;20022;-55
2022/09/27 06:31:13;;;;;;;4.63;2.53;;;9.90;99.90;;;;;;5072723;28;20025;-55
2022/09/27 06:33:39;;;;;;;3.13;2.75;;;9.90;99.90;;;;;;5072653;28;20032;-58
2022/09/27 06:36:06;;;;;;;3.15;2.75;;;9.90;99.90;;;;;;5072440;28;20500;-54
2022/09/27 06:38:32;;;;;;;8.50;3.20;;;9.90;99.90;;;;;;5072605;28;20025;-56
2022/09/27 06:41:02;;;;;;;3.85;3.53;;;10.00;99.90;;;;;;5071011;28;20024;-53
2022/09/27 06:43:29;;;;;;;5.07;2.85;;;10.00;99.90;;;;;;5064800;28;20117;-54
2022/09/27 06:45:55;;;;;;;6.97;4.93;;;10.10;99.90;;;;;;5050688;28;20420;-53
2022/09/27 06:48:21;;;;;;;7.63;3.22;;;10.20;99.90;;;;;;5052417;28;20048;-52
2022/09/27 06:50:47;;;;;;;3.97;3.47;;;10.30;99.90;;;;;;5052320;28;20025;-53
2022/09/27 06:53:15;;;;;;;4.97;3.78;;;10.30;99.90;;;;;;5052169;28;20025;-52
2022/09/27 06:55:41;;;;;;;9.88;3.80;;;10.20;99.90;;;;;;5052072;28;20036;-56
2022/09/27 07:00:53;;;;;;;6.57;4.78;;;10.30;99.90;;;;;;5070143;28;20086;-53
2022/09/27 07:03:22;;;;;;;14.20;6.18;;;10.30;99.90;;;;;;5051458;28;20120;-52
2022/09/27 07:05:55;;;;;;;8.25;4.22;;;10.40;99.90;;;;;;5051098;28;20035;-52
2022/09/27 07:08:22;;;;;;;11.75;5.28;;;10.60;99.90;;;;;;5051230;28;20073;-54
2022/09/27 07:10:48;;;;;;;8.68;5.70;;;10.70;99.90;;;;;;5051273;28;20033;-52
2022/09/27 07:13:14;;;;;;;12.75;6.47;;;10.80;99.90;;;;;;5050838;28;20028;-53
2022/09/27 07:15:40;;;;;;;6.53;3.58;;;10.90;99.90;;;;;;5053158;28;20052;-54
2022/09/27 07:18:07;;;;;;;7.88;3.28;;;10.90;99.90;;;;;;5056262;28;20032;-56
2022/09/27 07:20:37;;;;;;;4.80;3.40;;;10.90;99.90;;;;;;5051467;28;20356;-52
2022/09/27 07:23:09;;;;;;;5.47;4.30;;;10.90;99.90;;;;;;5051290;28;20027;-53
2022/09/27 07:25:35;;;;;;;4.18;3.22;;;10.90;99.90;;;;;;5051131;28;20020;-53
2022/09/27 07:28:06;;;;;;;4.28;3.35;;;11.00;99.90;;;;;;5051033;28;20021;-55
2022/09/27 07:30:33;;;;;;;3.33;2.83;;;11.20;99.90;;;;;;5051323;28;20067;-55
2022/09/27 07:33:00;;;;;;;2.97;2.35;;;11.20;99.90;;;;;;5050235;28;20495;-54
2022/09/27 07:35:26;;;;;;;3.72;2.83;;;11.20;99.90;;;;;;5051526;28;20029;-52
2022/09/27 07:37:54;;;;;;;3.13;2.80;;;11.10;99.90;;;;;;5051512;28;20020;-57
2022/09/27 07:40:19;;;;;;;2.72;2.53;;;11.30;99.90;;;;;;5051387;28;20032;-52
2022/09/27 07:42:45;;;;;;;4.63;2.92;;;11.30;99.90;;;;;;5050471;28;20392;-55
2022/09/27 07:45:11;;;;;;;4.32;2.75;;;11.60;99.90;;;;;;5051128;28;20043;-52
2022/09/27 07:47:39;;;;;;;4.15;2.38;;;11.50;99.90;;;;;;5060220;28;20031;-57
2022/09/27 07:50:06;;;;;;;2.88;2.63;;;11.50;99.90;;;;;;5070749;28;20024;-57
2022/09/27 07:52:41;;;;;;;4.25;2.00;;;11.30;99.90;;;;;;5046710;28;20033;-57
2022/09/27 07:55:12;;;;;;;8.13;2.88;;;11.40;99.90;;;;;;5040432;28;20029;-55
2022/09/27 07:57:38;;;;;;;2.92;2.72;;;11.50;99.90;;;;;;5042633;28;20028;-51
2022/09/27 08:00:07;;;;;;;4.65;2.50;;;11.50;99.90;;;;;;5045675;28;20021;-53
2022/09/27 08:02:33;;;;;;;2.63;2.15;;;11.50;99.90;;;;;;5043207;28;20373;-56
2022/09/27 08:04:59;;;;;;;4.35;1.60;;;11.60;99.90;;;;;;5044486;28;20033;-55
2022/09/27 08:07:26;;;;;;;3.78;2.72;;;11.50;99.90;;;;;;5044372;28;20126;-56
2022/09/27 08:09:52;;;;;;;1.90;1.70;;;11.60;99.90;;;;;;5044622;28;20408;-52
2022/09/27 08:12:20;;;;;;;1.42;1.30;;;11.80;99.90;;;;;;5047805;28;20029;-56
2022/09/27 08:14:46;;;;;;;2.22;2.08;;;11.90;99.90;;;;;;5057647;28;20031;-52
2022/09/27 08:17:12;;;;;;;2.08;1.98;;;11.70;99.90;;;;;;5044667;28;20048;-52
2022/09/27 08:19:39;;;;;;;3.13;1.85;;;11.70;99.90;;;;;;5045013;28;20060;-54
2022/09/27 08:22:05;;;;;;;1.60;1.50;;;11.90;99.90;;;;;;5044758;28;20336;-53
2022/09/27 08:24:31;;;;;;;4.13;1.50;;;12.00;99.90;;;;;;5044732;28;20400;-52
2022/09/27 08:26:57;;;;;;;1.92;1.58;;;12.00;99.90;;;;;;5044363;28;20028;-56
2022/09/27 08:29:23;;;;;;;1.42;1.35;;;11.90;99.90;;;;;;5044027;28;20067;-53
2022/09/27 08:31:53;;;;;;;2.45;1.65;;;12.40;99.90;;;;;;5044527;28;20041;-57
2022/09/27 08:34:22;;;;;;;1.98;1.85;;;12.50;99.90;;;;;;5044545;28;20114;-53
2022/09/27 08:36:48;;;;;;;2.42;1.65;;;12.60;99.90;;;;;;5046610;28;20082;-54
2022/09/27 08:39:14;;;;;;;1.30;1.20;;;12.50;99.90;;;;;;5054831;28;20565;-54
2022/09/27 08:42:01;;;;;;;1.90;1.40;;;12.70;99.90;;;;;;5054665;28;20112;-56
2022/09/27 08:44:57;;;;;;;2.88;1.20;;;12.20;99.90;;;;;;5057664;28;20071;-52
2022/09/27 08:47:33;;;;;;;4.32;1.45;;;12.30;99.90;;;;;;5074756;28;20082;-53
2022/09/27 08:50:23;;;;;;;2.42;1.52;;;12.30;99.90;;;;;;5074676;28;20036;-55
2022/09/27 08:53:24;;;;;;;1.70;1.60;;;12.50;99.90;;;;;;5074708;28;20308;-53
2022/09/27 08:55:53;;;;;;;2.72;1.65;;;12.40;99.90;;;;;;5071779;28;20041;-53
2022/09/27 08:58:36;;;;;;;5.53;1.60;;;12.80;99.90;;;;;;5074389;28;20108;-55
2022/09/27 09:01:10;;;;;;;2.10;1.53;;;13.10;99.90;;;;;;5072506;28;20024;-54
2022/09/27 09:03:48;;;;;;;1.85;1.20;;;13.20;99.90;;;;;;5069431;28;20500;-54
2022/09/27 09:06:44;;;;;;;6.40;1.52;;;13.00;99.90;;;;;;5042051;28;20419;-53
2022/09/27 09:09:28;;;;;;;1.10;1.10;;;13.00;99.90;;;;;;5053895;28;20045;-57
2022/09/27 09:15:12;;;;;;;4.38;1.40;;;13.00;99.90;;;;;;5054258;28;20444;-56
2022/09/27 09:17:57;;;;;;;1.83;1.60;;;12.90;99.90;;;;;;5053996;28;20024;-55
2022/09/27 09:20:36;;;;;;;2.38;1.95;;;12.70;99.90;;;;;;5059143;28;20016;-54
2022/09/27 09:23:29;;;;;;;4.72;1.50;;;12.60;99.90;;;;;;5073923;28;20487;-55
2022/09/27 09:26:19;;;;;;;3.17;1.80;;;12.70;99.90;;;;;;5073889;28;20379;-54
2022/09/27 09:28:56;;;;;;;3.25;1.33;;;13.10;99.90;;;;;;5072517;28;20063;-51
2022/09/27 09:31:53;;;;;;;2.40;1.70;;;13.50;99.90;;;;;;5074052;28;20035;-55
2022/09/27 09:34:45;;;;;;;4.25;1.23;;;13.80;99.90;;;;;;5073884;28;20029;-53
2022/09/27 09:37:25;;;;;;;5.60;1.40;;;14.30;99.90;;;;;;5073700;28;20036;-54
2022/09/27 09:39:58;;;;;;;2.70;1.58;;;14.20;99.90;;;;;;5072364;28;20107;-52
2022/09/27 09:42:38;;;;;;;1.92;1.77;;;14.00;99.90;;;;;;5073634;28;20021;-54
2022/09/27 09:45:33;;;;;;;1.15;1.13;;;14.20;99.90;;;;;;5052504;28;20025;-54
2022/09/27 09:48:08;;;;;;;1.52;1.15;;;14.50;99.90;;;;;;5054315;28;20045;-57
2022/09/27 09:50:43;;;;;;;1.40;1.30;;;14.30;99.90;;;;;;5063652;28;20037;-54
2022/09/27 09:53:20;;;;;;;5.07;1.63;;;14.10;99.90;;;;;;5073085;28;20103;-54
2022/09/27 09:55:57;;;;;;;1.02;1.02;;;14.10;99.90;;;;;;5072755;28;20020;-55
2022/09/27 09:58:49;;;;;;;2.97;1.30;;;14.10;99.90;;;;;;5072312;28;20020;-54
2022/09/27 10:02:05;;;;;;;5.18;1.23;;;14.10;99.90;;;;;;5072968;28;20086;-57
2022/09/27 10:04:32;;;;;;;1.60;1.15;;;14.40;99.90;;;;;;5068694;28;20086;-53
2022/09/27 10:07:00;;;;;;;1.92;1.00;;;14.70;99.90;;;;;;5052846;28;20408;-53
2022/09/27 10:09:27;;;;;;;2.85;1.38;;;14.50;99.90;;;;;;5053154;28;20025;-53
2022/09/27 10:11:53;;;;;;;1.90;1.20;;;14.20;99.90;;;;;;5052996;28;20020;-55
2022/09/27 10:14:21;;;;;;;2.10;1.20;;;14.20;99.90;;;;;;5053163;28;20091;-56
2022/09/27 10:16:57;;;;;;;3.28;1.25;;;13.60;99.90;;;;;;5052699;28;20025;-53
2022/09/27 10:19:29;;;;;;;6.45;1.65;;;13.10;99.90;;;;;;5057773;28;20365;-54
2022/09/27 10:22:09;;;;;;;1.17;1.17;;;12.80;99.90;;;;;;5072637;28;20526;-51
2022/09/27 10:24:55;;;;;;;5.28;1.30;;;12.70;99.90;;;;;;5067439;28;20104;-54
2022/09/27 10:27:22;;;;;;;2.45;1.00;;;12.50;99.90;;;;;;5052899;28;20151;-51
2022/09/27 10:29:58;;;;;;;2.20;1.33;;;12.70;99.90;;;;;;5052607;28;20082;-55
2022/09/27 10:32:35;;;;;;;1.27;1.00;;;12.90;99.90;;;;;;5052753;28;20083;-55
2022/09/27 10:35:20;;;;;;;3.72;1.55;;;12.80;99.90;;;;;;5052787;28;20084;-53
2022/09/27 10:37:46;;;;;;;1.33;0.90;;;12.80;99.90;;;;;;5052602;28;20021;-51
2022/09/27 10:40:32;;;;;;;1.13;1.00;;;12.50;99.90;;;;;;5051491;28;20025;-52
2022/09/27 10:42:58;;;;;;;0.80;0.80;;;12.00;99.90;;;;;;5052365;28;20024;-51
2022/09/27 10:45:32;;;;;;;1.63;1.05;;;11.90;99.90;;;;;;5052402;28;20112;-51
2022/09/27 10:51:38;;;;;;;1.63;1.52;;;11.50;99.90;;;;;;5052252;28;20147;-54
2022/09/27 10:54:04;;;;;;;;;;;11.50;99.90;;;;;;5057693;28;20033;-55
2022/09/27 10:56:32;;;;;;;3.03;1.02;;;11.50;99.90;;;;;;5072109;28;20355;-55
2022/09/27 10:58:59;;;;;;;2.45;1.10;;;11.50;99.90;;;;;;5072118;28;20051;-54
2022/09/27 11:01:36;;;;;;;3.20;0.95;;;11.20;99.90;;;;;;5070892;28;20071;-56
2022/09/27 11:04:03;;;;;;;0.60;0.60;;;11.30;99.90;;;;;;5071915;28;20066;-54
2022/09/27 11:06:36;;;;;;;0.70;0.70;;;11.60;99.90;;;;;;5050379;28;20347;-56
2022/09/27 11:09:31;;;;;;;0.98;0.82;;;11.90;99.90;;;;;;5041825;28;20049;-56
2022/09/27 11:12:11;;;;;;;0.70;0.70;;;12.30;99.90;;;;;;5041539;28;20045;-52
2022/09/27 11:14:38;;;;;;;0.90;0.90;;;12.00;99.90;;;;;;5059175;28;20090;-54
2022/09/27 11:17:31;;;;;;;2.35;1.00;;;12.50;99.90;;;;;;5066305;28;20047;-55
2022/09/27 11:20:20;;;;;;;0.90;0.90;;;12.40;99.90;;;;;;5050417;28;20032;-54
2022/09/27 11:23:19;;;;;;;0.90;0.90;;;12.30;99.90;;;;;;5050469;28;20425;-54
2022/09/27 11:26:09;;;;;;;6.20;1.10;;;12.60;99.90;;;;;;5059887;28;20024;-55
2022/09/27 11:28:41;;;;;;;1.13;1.00;;;12.80;99.90;;;;;;5070696;28;20016;-53
2022/09/27 11:31:31;;;;;;;0.80;0.80;;;12.90;99.90;;;;;;5070617;28;20017;-54
2022/09/27 11:34:09;;;;;;;3.40;1.38;;;12.80;99.90;;;;;;5070373;28;20024;-53
2022/09/27 11:36:59;;;;;;;2.97;1.08;;;13.00;99.90;;;;;;5070489;28;20038;-54
2022/09/27 11:39:34;;;;;;;1.80;1.20;;;12.90;99.90;;;;;;5067885;28;20541;-54
2022/09/27 11:42:44;;;;;;;3.60;1.05;;;12.70;99.90;;;;;;5051384;28;20095;-56
2022/09/27 11:45:44;;;;;;;2.03;1.35;;;12.90;99.90;;;;;;5038031;28;20426;-56
2022/09/27 11:48:58;;;;;;;1.10;0.60;;;13.00;99.90;;;;;;5060792;28;20111;-55
2022/09/27 11:51:36;;;;;;;2.63;0.70;;;13.50;99.90;;;;;;5050292;28;20116;-52
2022/09/27 11:54:39;;;;;;;0.90;0.90;;;14.00;99.90;;;;;;5041167;28;20037;-56
2022/09/27 11:57:27;;;;;;;0.70;0.70;;;14.00;99.90;;;;;;5040715;28;20033;-55
2022/09/27 12:00:23;;;;;;;1.17;1.05;;;14.40;99.90;;;;;;5038618;28;20032;-55
2022/09/27 12:03:12;;;;;;;0.80;0.80;;;14.00;99.90;;;;;;5039412;28;20668;-54
2022/09/27 12:05:56;;;;;;;0.80;0.80;;;13.90;99.90;;;;;;5040399;28;20464;-53
2022/09/27 12:08:21;;;;;;;1.00;1.00;;;13.50;99.90;;;;;;5040010;28;20068;-56
2022/09/27 12:10:52;;;;;;;0.80;0.80;;;13.40;99.90;;;;;;5040159;28;20029;-55
2022/09/27 12:13:36;;;;;;;2.13;0.88;;;13.00;99.90;;;;;;5058035;28;20024;-52
2022/09/27 12:16:02;;;;;;;2.35;0.90;;;12.60;99.90;;;;;;5040151;28;20060;-56
2022/09/27 12:18:32;;;;;;;3.40;0.90;;;12.90;99.90;;;;;;5051068;28;20043;-55
2022/09/27 12:21:02;;;;;;;2.05;1.20;;;13.00;99.90;;;;;;5039867;28;20364;-55
2022/09/27 12:23:37;;;;;;;1.95;0.93;;;12.90;99.90;;;;;;5039020;28;20024;-57
2022/09/27 12:26:08;;;;;;;0.80;0.80;;;12.60;99.90;;;;;;5039676;28;20021;-53
2022/09/27 12:28:57;;;;;;;5.80;1.35;;;12.40;99.90;;;;;;5040309;28;20029;-55
2022/09/27 12:31:47;;;;;;;0.80;0.80;;;12.10;99.90;;;;;;5039657;28;20103;-54
2022/09/27 12:34:33;;;;;;;0.90;0.90;;;12.30;99.90;;;;;;5039277;28;20032;-53
2022/09/27 12:37:17;;;;;;;3.15;1.27;;;12.70;99.90;;;;;;5040156;28;20032;-58
2022/09/27 12:40:11;;;;;;;0.88;0.88;;;12.50;99.90;;;;;;5039864;28;20091;-54
2022/09/27 12:42:58;;;;;;;2.25;0.88;;;12.60;99.90;;;;;;5039317;28;20036;-55
2022/09/27 12:45:55;;;;;;;0.88;0.82;;;12.20;99.90;;;;;;5044121;28;20387;-54
2022/09/27 12:48:20;;;;;;;1.88;0.70;;;12.20;99.90;;;;;;5044113;28;20033;-52
2022/09/27 12:50:52;;;;;;;0.77;0.77;;;12.20;99.90;;;;;;5043517;28;20078;-56
2022/09/27 12:53:28;;;;;;;1.17;0.93;;;12.20;99.90;;;;;;5043440;28;20040;-56
2022/09/27 12:56:18;;;;;;;8.52;1.45;;;12.10;99.90;;;;;;5042126;28;20039;-55
2022/09/27 12:59:02;;;;;;;0.90;0.90;;;12.30;99.90;;;;;;5043974;28;20496;-57
2022/09/27 13:01:46;;;;;;;;;;;12.50;99.90;;;;;;5045443;28;20496;-57
2022/09/27 13:04:31;;;;;;;4.35;1.35;;;12.60;99.90;;;;;;5046630;28;19912;-54
2022/09/27 13:07:13;;;;;;;4.22;1.05;;;12.60;99.90;;;;;;5054252;28;20041;-56
2022/09/27 13:09:45;;;;;;;1.13;0.95;;;12.60;99.90;;;;;;5043242;28;20115;-55
2022/09/27 13:12:13;;;;;;;1.90;1.08;;;12.70;99.90;;;;;;5044202;28;20053;-54
2022/09/27 13:15:02;;;;;;;2.70;2.08;;;12.80;99.90;;;;;;5048254;28;20029;-57
2022/09/27 13:17:55;;;;;;;1.83;1.10;;;12.80;99.90;;;;;;5043816;28;20111;-54
2022/09/27 13:20:29;;;;;;;6.82;1.25;;;12.90;99.90;;;;;;5046247;28;20100;-56
2022/09/27 13:22:56;;;;;;;4.60;1.40;;;12.80;99.90;;;;;;5042695;28;20040;-56
2022/09/27 13:25:50;;;;;;;0.70;0.70;;;13.10;99.90;;;;;;5043099;28;20056;-53
2022/09/27 13:28:48;;;;;;;1.38;0.95;;;13.20;99.90;;;;;;5042789;28;20052;-52
2022/09/27 13:31:14;;;;;;;0.73;0.73;;;13.40;99.90;;;;;;5053095;28;20108;-53
2022/09/27 13:33:51;;;;;;;0.80;0.80;;;14.10;99.90;;;;;;5041107;28;20029;-55
2022/09/27 13:36:23;;;;;;;1.58;1.00;;;14.40;99.80;;;;;;5042840;28;20091;-54